createdAt,value
2018-11-26T00:00:33.882Z,101261.16
2018-11-26T00:01:36.713Z,101261.16
2018-11-26T00:02:39.348Z,101257.17
2018-11-26T00:03:41.956Z,101256.44
2018-11-26T00:04:44.572Z,101260.33
2018-11-26T00:05:47.200Z,101257.77
2018-11-26T00:06:49.796Z,101251.61
2018-11-26T00:07:52.416Z,101255.11
2018-11-26T00:08:55.017Z,101253.91
2018-11-26T00:10:08.832Z,101255.23
2018-11-26T00:11:34.368Z,101263.23
2018-11-26T00:12:36.968Z,101259.59
2018-11-26T00:13:39.596Z,101233.37
2018-11-26T00:14:42.188Z,101265.89
2018-11-26T00:15:44.792Z,101263.69
2018-11-26T00:16:47.464Z,101254.97
2018-11-26T00:17:50.073Z,101253.64
2018-11-26T00:18:52.704Z,101251.84
2018-11-26T00:19:55.304Z,101258.97
2018-11-26T00:20:57.924Z,101252.81
2018-11-26T00:22:00.531Z,101250.52
2018-11-26T00:23:03.134Z,101250.15
2018-11-26T00:24:05.940Z,101250.61
2018-11-26T00:25:08.555Z,101246.16
2018-11-26T00:26:11.184Z,101245.29
2018-11-26T00:27:13.797Z,101242.76
2018-11-26T00:28:16.389Z,101245.29
2018-11-26T00:29:19.049Z,101241.80
2018-11-26T00:30:21.664Z,101242.16
2018-11-26T00:31:24.292Z,101235.14
2018-11-26T00:32:26.906Z,101236.84
2018-11-26T00:33:29.515Z,101236.47
2018-11-26T00:34:32.242Z,101236.94
2018-11-26T00:35:34.857Z,101231.97
2018-11-26T00:36:37.479Z,101231.52
2018-11-26T00:37:40.080Z,101226.28
2018-11-26T00:38:42.680Z,101221.83
2018-11-26T00:39:45.434Z,101220.96
2018-11-26T00:40:48.036Z,101217.83
2018-11-26T00:41:50.636Z,101219.99
2018-11-26T00:42:53.219Z,101225.31
2018-11-26T00:43:55.840Z,101219.99
2018-11-26T00:44:58.540Z,101217.23
2018-11-26T00:46:01.179Z,101219.03
2018-11-26T00:47:03.796Z,101214.67
2018-11-26T00:48:06.412Z,101218.56
2018-11-26T00:49:09.032Z,101217.70
2018-11-26T00:50:11.812Z,101218.06
2018-11-26T00:51:14.424Z,101217.33
2018-11-26T00:52:17.124Z,101216.36
2018-11-26T00:53:19.735Z,101213.23
2018-11-26T00:54:22.336Z,101215.03
2018-11-26T00:55:25.035Z,101220.36
2018-11-26T00:56:27.639Z,101220.26
2018-11-26T00:57:30.244Z,101224.25
2018-11-26T00:58:32.849Z,101218.06
2018-11-26T00:59:35.445Z,101217.23
2018-11-26T01:00:38.145Z,101218.93
2018-11-26T01:01:40.760Z,101220.73
2018-11-26T01:02:43.375Z,101210.20
2018-11-26T01:03:45.984Z,101219.39
2018-11-26T01:04:48.583Z,101211.91
2018-11-26T01:05:51.288Z,101214.56
2018-11-26T01:06:54.044Z,101215.91
2018-11-26T01:07:56.649Z,101211.91
2018-11-26T01:08:59.251Z,101212.27
2018-11-26T01:10:01.871Z,101206.58
2018-11-26T01:11:04.916Z,101212.64
2018-11-26T01:12:07.527Z,101208.28
2018-11-26T01:13:10.132Z,101207.41
2018-11-26T01:14:12.744Z,101215.30
2018-11-26T01:15:15.372Z,101217.46
2018-11-26T01:16:18.000Z,101216.13
2018-11-26T01:17:20.600Z,101220.02
2018-11-26T01:18:23.237Z,101213.00
2018-11-26T01:19:25.841Z,101213.36
2018-11-26T01:20:28.444Z,101215.53
2018-11-26T01:21:31.075Z,101213.83
2018-11-26T01:22:33.680Z,101205.38
2018-11-26T01:23:36.988Z,101205.48
2018-11-26T01:24:39.596Z,101206.71
2018-11-26T01:25:42.193Z,101207.54
2018-11-26T01:26:44.808Z,101206.71
2018-11-26T01:27:47.423Z,101208.41
2018-11-26T01:28:50.019Z,101206.71
2018-11-26T01:29:52.615Z,101204.52
2018-11-26T01:30:55.236Z,101203.08
2018-11-26T01:31:57.855Z,101200.05
2018-11-26T01:33:00.449Z,101204.05
2018-11-26T01:34:03.055Z,101199.09
2018-11-26T01:35:06.903Z,101200.88
2018-11-26T01:36:09.502Z,101198.72
2018-11-26T01:37:12.108Z,101198.72
2018-11-26T01:38:14.737Z,101200.88
2018-11-26T01:39:17.332Z,101196.89
2018-11-26T01:40:22.496Z,101196.53
2018-11-26T01:41:25.109Z,101198.72
2018-11-26T01:42:27.747Z,101196.06
2018-11-26T01:43:30.372Z,101194.73
2018-11-26T01:44:32.966Z,101193.39
2018-11-26T01:45:35.570Z,101192.66
2018-11-26T01:46:38.200Z,101195.69
2018-11-26T01:47:40.836Z,101195.69
2018-11-26T01:48:43.460Z,101199.19
2018-11-26T01:49:46.072Z,101190.83
2018-11-26T01:50:48.670Z,101194.83
2018-11-26T01:51:51.263Z,101192.16
2018-11-26T01:52:53.912Z,101190.00
2018-11-26T01:53:56.525Z,101189.14
2018-11-26T01:54:59.362Z,101191.80
2018-11-26T01:56:01.969Z,101185.64
2018-11-26T01:57:04.716Z,101190.47
2018-11-26T01:58:07.328Z,101182.98
2018-11-26T01:59:09.937Z,101181.65
2018-11-26T02:00:24.001Z,101184.31
2018-11-26T02:01:26.336Z,101182.48
2018-11-26T02:02:28.924Z,101180.32
2018-11-26T02:03:31.576Z,101187.34
2018-11-26T02:04:34.216Z,101187.34
2018-11-26T02:05:36.859Z,101182.12
2018-11-26T02:06:39.488Z,101187.94
2018-11-26T02:07:42.131Z,101188.77
2018-11-26T02:08:44.764Z,101189.27
2018-11-26T02:09:47.520Z,101181.75
2018-11-26T02:10:50.124Z,101178.63
2018-11-26T02:11:52.749Z,101179.95
2018-11-26T02:12:55.376Z,101185.28
2018-11-26T02:13:58.008Z,101179.95
2018-11-26T02:15:00.607Z,101180.92
2018-11-26T02:16:03.252Z,101182.62
2018-11-26T02:17:05.936Z,101181.28
2018-11-26T02:18:09.095Z,101182.62
2018-11-26T02:19:11.720Z,101180.42
2018-11-26T02:20:14.321Z,101174.12
2018-11-26T02:21:16.940Z,101179.95
2018-11-26T02:22:19.552Z,101171.61
2018-11-26T02:23:22.175Z,101168.44
2018-11-26T02:24:24.813Z,101176.42
2018-11-26T02:25:27.516Z,101174.27
2018-11-26T02:26:30.124Z,101177.30
2018-11-26T02:27:32.736Z,101176.56
2018-11-26T02:28:35.342Z,101170.73
2018-11-26T02:29:37.968Z,101171.23
2018-11-26T02:30:40.596Z,101163.72
2018-11-26T02:31:43.223Z,101165.55
2018-11-26T02:32:45.836Z,101168.67
2018-11-26T02:33:48.441Z,101163.48
2018-11-26T02:34:51.039Z,101167.84
2018-11-26T02:35:53.640Z,101167.48
2018-11-26T02:36:56.252Z,101167.48
2018-11-26T02:37:58.840Z,101170.14
2018-11-26T02:39:01.455Z,101164.92
2018-11-26T02:40:04.746Z,101161.80
2018-11-26T02:41:07.360Z,101159.59
2018-11-26T02:42:09.984Z,101160.46
2018-11-26T02:43:12.592Z,101159.59
2018-11-26T02:44:15.251Z,101154.38
2018-11-26T02:45:17.881Z,101151.71
2018-11-26T02:46:20.496Z,101151.71
2018-11-26T02:47:23.097Z,101153.05
2018-11-26T02:48:25.687Z,101151.71
2018-11-26T02:49:28.296Z,101151.71
2018-11-26T02:50:31.024Z,101155.70
2018-11-26T02:51:33.622Z,101151.34
2018-11-26T02:52:36.232Z,101158.37
2018-11-26T02:53:38.843Z,101152.67
2018-11-26T02:54:41.444Z,101146.98
2018-11-26T02:55:44.098Z,101152.21
2018-11-26T02:56:46.880Z,101150.02
2018-11-26T02:57:49.520Z,101149.66
2018-11-26T02:58:52.120Z,101145.66
2018-11-26T02:59:54.713Z,101146.98
2018-11-26T03:00:57.360Z,101147.36
2018-11-26T03:01:59.970Z,101150.98
2018-11-26T03:03:02.578Z,101146.98
2018-11-26T03:04:05.412Z,101147.36
2018-11-26T03:05:09.426Z,101138.64
2018-11-26T03:06:12.064Z,101140.83
2018-11-26T03:07:14.672Z,101139.00
2018-11-26T03:08:17.276Z,101137.67
2018-11-26T03:09:19.889Z,101140.70
2018-11-26T03:10:22.881Z,101139.50
2018-11-26T03:11:25.852Z,101141.66
2018-11-26T03:12:28.460Z,101136.70
2018-11-26T03:13:31.053Z,101141.56
2018-11-26T03:14:33.648Z,101136.34
2018-11-26T03:15:36.262Z,101143.72
2018-11-26T03:16:38.881Z,101140.23
2018-11-26T03:17:41.472Z,101140.23
2018-11-26T03:18:44.072Z,101136.70
2018-11-26T03:19:46.668Z,101132.71
2018-11-26T03:20:49.300Z,101137.57
2018-11-26T03:21:51.919Z,101127.39
2018-11-26T03:22:54.516Z,101134.05
2018-11-26T03:23:57.124Z,101132.25
2018-11-26T03:24:59.752Z,101131.75
2018-11-26T03:26:02.363Z,101133.08
2018-11-26T03:27:05.462Z,101132.71
2018-11-26T03:28:08.168Z,101128.25
2018-11-26T03:29:10.774Z,101134.05
2018-11-26T03:30:15.394Z,101128.72
2018-11-26T03:31:29.038Z,101134.55
2018-11-26T03:32:31.644Z,101125.59
2018-11-26T03:33:34.250Z,101119.91
2018-11-26T03:34:36.873Z,101123.89
2018-11-26T03:35:39.468Z,101126.55
2018-11-26T03:36:42.072Z,101122.20
2018-11-26T03:37:44.719Z,101124.86
2018-11-26T03:38:55.219Z,101119.64
2018-11-26T03:39:57.819Z,101124.97
2018-11-26T03:41:00.476Z,101123.63
2018-11-26T03:42:03.105Z,101129.82
2018-11-26T03:43:05.792Z,101120.97
2018-11-26T03:44:08.387Z,101123.27
2018-11-26T03:45:12.284Z,101123.27
2018-11-26T03:46:14.956Z,101119.28
2018-11-26T03:47:17.553Z,101114.55
2018-11-26T03:48:20.172Z,101116.25
2018-11-26T03:49:22.779Z,101105.60
2018-11-26T03:50:25.412Z,101113.59
2018-11-26T03:51:28.016Z,101109.23
2018-11-26T03:52:30.620Z,101117.58
2018-11-26T03:53:33.258Z,101112.76
2018-11-26T03:54:35.882Z,101111.89
2018-11-26T03:55:39.558Z,101103.08
2018-11-26T03:56:42.176Z,101112.39
2018-11-26T03:57:44.791Z,101108.40
2018-11-26T03:58:47.551Z,101108.87
2018-11-26T03:59:50.148Z,101111.89
2018-11-26T04:00:52.748Z,101107.53
2018-11-26T04:01:55.368Z,101107.07
2018-11-26T04:02:57.960Z,101107.53
2018-11-26T04:04:00.605Z,101100.41
2018-11-26T04:05:03.304Z,101100.05
2018-11-26T04:06:05.948Z,101110.20
2018-11-26T04:07:08.556Z,101105.84
2018-11-26T04:08:11.168Z,101101.84
2018-11-26T04:09:13.784Z,101104.51
2018-11-26T04:10:16.376Z,101101.37
2018-11-26T04:11:18.989Z,101104.87
2018-11-26T04:12:21.599Z,101107.90
2018-11-26T04:13:24.188Z,101100.88
2018-11-26T04:14:26.805Z,101098.72
2018-11-26T04:15:29.392Z,101103.08
2018-11-26T04:16:32.046Z,101102.71
2018-11-26T04:17:34.648Z,101099.55
2018-11-26T04:18:37.240Z,101097.75
2018-11-26T04:19:39.941Z,101098.22
2018-11-26T04:20:42.648Z,101094.23
2018-11-26T04:21:45.242Z,101091.56
2018-11-26T04:22:47.856Z,101098.22
2018-11-26T04:23:50.448Z,101091.56
2018-11-26T04:24:53.039Z,101096.89
2018-11-26T04:25:55.642Z,101096.89
2018-11-26T04:26:58.587Z,101091.56
2018-11-26T04:28:00.902Z,101084.91
2018-11-26T04:29:03.531Z,101097.25
2018-11-26T04:30:09.403Z,101095.92
2018-11-26T04:31:12.009Z,101098.95
2018-11-26T04:32:14.596Z,101098.11
2018-11-26T04:33:22.425Z,101096.28
2018-11-26T04:34:25.005Z,101100.28
2018-11-26T04:35:27.633Z,101105.97
2018-11-26T04:36:30.220Z,101100.78
2018-11-26T04:37:32.832Z,101108.77
2018-11-26T04:38:35.528Z,101104.27
2018-11-26T04:39:38.131Z,101099.08
2018-11-26T04:40:40.715Z,101099.45
2018-11-26T04:41:43.312Z,101095.55
2018-11-26T04:42:45.932Z,101098.22
2018-11-26T04:43:48.640Z,101099.55
2018-11-26T04:44:51.232Z,101092.89
2018-11-26T04:45:53.844Z,101091.09
2018-11-26T04:46:56.443Z,101092.06
2018-11-26T04:47:59.048Z,101092.89
2018-11-26T04:49:01.756Z,101095.09
2018-11-26T04:50:05.769Z,101098.22
2018-11-26T04:51:08.376Z,101092.53
2018-11-26T04:52:10.972Z,101096.52
2018-11-26T04:53:13.567Z,101097.85
2018-11-26T04:54:16.260Z,101092.53
2018-11-26T04:55:18.876Z,101096.16
2018-11-26T04:56:28.168Z,101094.73
2018-11-26T04:57:30.768Z,101097.85
2018-11-26T04:58:33.356Z,101094.00
2018-11-26T04:59:35.972Z,101101.48
2018-11-26T05:00:38.648Z,101098.82
2018-11-26T05:01:41.252Z,101094.47
2018-11-26T05:02:43.857Z,101098.45
2018-11-26T05:03:46.472Z,101087.81
2018-11-26T05:04:49.175Z,101090.47
2018-11-26T05:05:51.771Z,101087.81
2018-11-26T05:06:54.360Z,101094.83
2018-11-26T05:07:56.989Z,101091.34
2018-11-26T05:08:59.592Z,101094.47
2018-11-26T05:10:02.256Z,101090.00
2018-11-26T05:11:05.191Z,101090.47
2018-11-26T05:12:07.796Z,101092.67
2018-11-26T05:13:10.396Z,101089.14
2018-11-26T05:14:12.984Z,101096.16
2018-11-26T05:15:15.714Z,101095.69
2018-11-26T05:16:18.304Z,101086.38
2018-11-26T05:17:20.892Z,101089.88
2018-11-26T05:18:23.496Z,101090.84
2018-11-26T05:19:26.084Z,101092.53
2018-11-26T05:20:28.808Z,101093.50
2018-11-26T05:21:31.395Z,101093.50
2018-11-26T05:22:33.989Z,101086.38
2018-11-26T05:23:36.596Z,101095.19
2018-11-26T05:24:39.192Z,101092.53
2018-11-26T05:25:41.916Z,101083.22
2018-11-26T05:26:44.516Z,101093.86
2018-11-26T05:27:47.120Z,101092.53
2018-11-26T05:28:49.716Z,101090.73
2018-11-26T05:29:52.317Z,101096.05
2018-11-26T05:30:55.032Z,101095.09
2018-11-26T05:31:57.633Z,101089.88
2018-11-26T05:33:00.256Z,101071.83
2018-11-26T05:34:02.856Z,101095.19
2018-11-26T05:35:07.024Z,101095.19
2018-11-26T05:36:09.732Z,101092.53
2018-11-26T05:37:12.340Z,101090.23
2018-11-26T05:38:14.935Z,101092.89
2018-11-26T05:39:17.532Z,101087.20
2018-11-26T05:40:20.134Z,101091.09
2018-11-26T05:41:22.735Z,101094.23
2018-11-26T05:42:28.787Z,101087.20
2018-11-26T05:43:27.980Z,101088.91
2018-11-26T05:44:30.572Z,101088.54
2018-11-26T05:45:33.172Z,101090.73
2018-11-26T05:46:35.860Z,101084.55
2018-11-26T05:47:38.492Z,101086.74
2018-11-26T05:48:41.108Z,101091.20
2018-11-26T05:49:43.745Z,101093.86
2018-11-26T05:50:46.364Z,101087.20
2018-11-26T05:51:48.984Z,101092.17
2018-11-26T05:52:51.598Z,101096.66
2018-11-26T05:53:54.195Z,101092.53
2018-11-26T05:54:56.796Z,101089.64
2018-11-26T05:55:59.428Z,101093.13
2018-11-26T05:57:02.048Z,101094.00
2018-11-26T05:58:05.372Z,101095.43
2018-11-26T05:59:07.988Z,101094.47
2018-11-26T06:00:13.248Z,101088.17
2018-11-26T06:01:15.860Z,101096.05
2018-11-26T06:02:18.500Z,101088.80
2018-11-26T06:03:21.299Z,101086.86
2018-11-26T06:04:23.897Z,101088.42
2018-11-26T06:05:26.500Z,101091.45
2018-11-26T06:06:29.103Z,101092.17
2018-11-26T06:07:31.718Z,101088.58
2018-11-26T06:08:34.413Z,101092.94
2018-11-26T06:09:37.012Z,101098.02
2018-11-26T06:10:39.655Z,101097.05
2018-11-26T06:11:42.259Z,101070.16
2018-11-26T06:12:44.879Z,101095.95
2018-11-26T06:13:47.504Z,101092.92
2018-11-26T06:14:50.100Z,101099.47
2018-11-26T06:15:52.704Z,101098.14
2018-11-26T06:16:55.347Z,101096.67
2018-11-26T06:17:57.963Z,101094.52
2018-11-26T06:19:00.598Z,101091.34
2018-11-26T06:20:03.648Z,101100.56
2018-11-26T06:21:06.424Z,101093.18
2018-11-26T06:22:09.039Z,101099.34
2018-11-26T06:23:11.662Z,101100.20
2018-11-26T06:24:14.269Z,101101.53
2018-11-26T06:25:19.133Z,101100.20
2018-11-26T06:26:21.749Z,101097.17
2018-11-26T06:27:24.356Z,101099.70
2018-11-26T06:28:26.996Z,101100.67
2018-11-26T06:29:29.604Z,101102.50
2018-11-26T06:30:32.235Z,101102.50
2018-11-26T06:31:34.839Z,101110.48
2018-11-26T06:32:37.501Z,101103.47
2018-11-26T06:33:40.108Z,101106.12
2018-11-26T06:34:42.745Z,101114.12
2018-11-26T06:35:45.348Z,101115.08
2018-11-26T06:36:47.944Z,101110.23
2018-11-26T06:37:50.630Z,101115.92
2018-11-26T06:38:53.396Z,101119.08
2018-11-26T06:39:55.987Z,101127.43
2018-11-26T06:40:58.585Z,101120.41
2018-11-26T06:42:01.197Z,101121.74
2018-11-26T06:43:04.212Z,101121.23
2018-11-26T06:44:07.126Z,101126.56
2018-11-26T06:45:13.188Z,101126.56
2018-11-26T06:46:15.776Z,101127.43
2018-11-26T06:47:18.426Z,101125.73
2018-11-26T06:48:21.048Z,101120.78
2018-11-26T06:49:23.664Z,101113.39
2018-11-26T06:50:26.264Z,101121.37
2018-11-26T06:51:28.859Z,101119.55
2018-11-26T06:52:31.460Z,101118.22
2018-11-26T06:53:34.060Z,101120.88
2018-11-26T06:54:36.652Z,101126.70
2018-11-26T06:55:39.265Z,101123.17
2018-11-26T06:56:41.864Z,101121.02
2018-11-26T06:57:44.464Z,101124.64
2018-11-26T06:58:47.045Z,101129.00
2018-11-26T06:59:49.640Z,101128.64
2018-11-26T07:00:52.240Z,101129.97
2018-11-26T07:01:54.840Z,101132.27
2018-11-26T07:02:57.432Z,101127.91
2018-11-26T07:04:00.029Z,101127.91
2018-11-26T07:05:02.936Z,101128.87
2018-11-26T07:06:06.284Z,101133.34
2018-11-26T07:07:09.026Z,101133.84
2018-11-26T07:08:11.624Z,101137.33
2018-11-26T07:09:14.268Z,101140.86
2018-11-26T07:10:17.660Z,101143.98
2018-11-26T07:11:20.264Z,101139.63
2018-11-26T07:12:22.876Z,101139.16
2018-11-26T07:13:25.472Z,101145.82
2018-11-26T07:14:28.057Z,101144.48
2018-11-26T07:15:30.682Z,101150.64
2018-11-26T07:16:33.292Z,101147.52
2018-11-26T07:17:35.902Z,101143.16
2018-11-26T07:18:38.534Z,101140.86
2018-11-26T07:19:41.156Z,101142.66
2018-11-26T07:20:43.793Z,101144.85
2018-11-26T07:21:46.404Z,101141.33
2018-11-26T07:22:49.007Z,101149.21
2018-11-26T07:23:51.600Z,101146.55
2018-11-26T07:24:54.204Z,101139.39
2018-11-26T07:25:56.828Z,101139.29
2018-11-26T07:26:59.436Z,101140.62
2018-11-26T07:28:03.868Z,101144.98
2018-11-26T07:29:06.468Z,101148.00
2018-11-26T07:30:11.569Z,101149.80
2018-11-26T07:31:14.168Z,101143.51
2018-11-26T07:32:16.772Z,101146.53
2018-11-26T07:33:19.380Z,101147.40
2018-11-26T07:34:21.972Z,101147.40
2018-11-26T07:35:24.555Z,101141.21
2018-11-26T07:36:27.264Z,101144.73
2018-11-26T07:37:29.854Z,101147.40
2018-11-26T07:38:33.484Z,101150.89
2018-11-26T07:39:36.089Z,101152.23
2018-11-26T07:40:38.693Z,101150.89
2018-11-26T07:41:41.308Z,101145.10
2018-11-26T07:42:47.280Z,101148.59
2018-11-26T07:43:49.875Z,101150.42
2018-11-26T07:44:52.476Z,101149.70
2018-11-26T07:45:55.073Z,101147.40
2018-11-26T07:46:57.660Z,101147.40
2018-11-26T07:48:00.262Z,101150.06
2018-11-26T07:49:02.864Z,101149.20
2018-11-26T07:50:08.792Z,101150.06
2018-11-26T07:51:11.390Z,101150.06
2018-11-26T07:52:13.992Z,101155.86
2018-11-26T07:53:16.600Z,101158.05
2018-11-26T07:54:19.208Z,101161.18
2018-11-26T07:55:22.690Z,101158.16
2018-11-26T07:56:25.322Z,101163.02
2018-11-26T07:57:27.933Z,101163.02
2018-11-26T07:58:30.544Z,101171.83
2018-11-26T07:59:33.149Z,101165.31
2018-11-26T08:00:35.764Z,101169.30
2018-11-26T08:01:38.363Z,101168.80
2018-11-26T08:02:41.247Z,101172.44
2018-11-26T08:03:43.848Z,101175.46
2018-11-26T08:04:46.432Z,101178.98
2018-11-26T08:05:49.020Z,101170.14
2018-11-26T08:06:51.626Z,101174.62
2018-11-26T08:07:54.244Z,101171.37
2018-11-26T08:08:56.959Z,101173.66
2018-11-26T08:09:59.576Z,101172.70
2018-11-26T08:11:02.185Z,101171.83
2018-11-26T08:12:04.842Z,101174.99
2018-11-26T08:13:07.441Z,101175.96
2018-11-26T08:14:10.041Z,101176.80
2018-11-26T08:15:14.971Z,101178.63
2018-11-26T08:16:17.572Z,101179.95
2018-11-26T08:17:20.163Z,101181.28
2018-11-26T08:18:22.764Z,101180.42
2018-11-26T08:19:25.359Z,101179.09
2018-11-26T08:20:27.947Z,101177.89
2018-11-26T08:21:30.580Z,101171.23
2018-11-26T08:22:33.169Z,101180.92
2018-11-26T08:23:35.840Z,101172.20
2018-11-26T08:24:38.440Z,101166.15
2018-11-26T08:25:41.036Z,101173.17
2018-11-26T08:26:43.635Z,101173.64
2018-11-26T08:27:46.928Z,101174.14
2018-11-26T08:28:49.560Z,101180.43
2018-11-26T08:29:52.160Z,101171.94
2018-11-26T08:30:54.767Z,101171.47
2018-11-26T08:31:57.375Z,101175.10
2018-11-26T08:33:00.864Z,101173.38
2018-11-26T08:34:03.489Z,101175.20
2018-11-26T08:35:06.236Z,101173.88
2018-11-26T08:36:12.652Z,101182.69
2018-11-26T08:37:16.357Z,101176.17
2018-11-26T08:38:28.380Z,101185.95
2018-11-26T08:39:36.148Z,101187.66
2018-11-26T08:40:43.372Z,101187.28
2018-11-26T08:41:52.028Z,101185.95
2018-11-26T08:44:09.545Z,101196.60
2018-11-26T08:45:17.265Z,101190.45
2018-11-26T08:46:25.312Z,101198.07
2018-11-26T08:47:38.248Z,101200.47
2018-11-26T08:48:46.460Z,101197.44
2018-11-26T08:49:49.052Z,101205.92
2018-11-26T08:50:51.678Z,101201.06
2018-11-26T08:51:54.304Z,101204.33
2018-11-26T08:52:56.937Z,101204.33
2018-11-26T08:53:59.529Z,101209.19
2018-11-26T08:55:02.140Z,101205.66
2018-11-26T08:56:04.910Z,101210.02
2018-11-26T08:57:07.573Z,101206.02
2018-11-26T08:58:10.176Z,101211.84
2018-11-26T08:59:12.770Z,101207.36
2018-11-26T09:00:15.370Z,101208.69
2018-11-26T09:01:19.492Z,101215.34
2018-11-26T09:02:26.588Z,101207.36
2018-11-26T09:03:35.110Z,101214.88
2018-11-26T09:04:45.656Z,101210.75
2018-11-26T09:05:53.708Z,101210.38
2018-11-26T09:06:56.335Z,101213.05
2018-11-26T09:07:58.937Z,101213.55
2018-11-26T09:09:01.555Z,101210.38
2018-11-26T09:10:04.760Z,101209.05
2018-11-26T09:11:08.855Z,101214.52
2018-11-26T09:12:11.536Z,101213.05
2018-11-26T09:13:14.128Z,101211.72
2018-11-26T09:14:16.732Z,101208.69
2018-11-26T09:15:19.331Z,101208.69
2018-11-26T09:16:21.972Z,101209.19
2018-11-26T09:17:24.592Z,101180.08
2018-11-26T09:18:27.215Z,101202.03
2018-11-26T09:19:29.841Z,101205.66
2018-11-26T09:20:32.456Z,101202.03
2018-11-26T09:21:35.062Z,101204.83
2018-11-26T09:22:37.688Z,101206.63
2018-11-26T09:23:40.302Z,101204.33
2018-11-26T09:24:42.944Z,101208.32
2018-11-26T09:25:45.557Z,101204.33
2018-11-26T09:26:48.164Z,101206.99
2018-11-26T09:27:50.781Z,101205.66
2018-11-26T09:28:53.422Z,101206.99
2018-11-26T09:29:56.019Z,101203.00
2018-11-26T09:30:58.628Z,101200.70
2018-11-26T09:32:01.241Z,101203.50
2018-11-26T09:33:03.862Z,101206.16
2018-11-26T09:34:06.798Z,101206.16
2018-11-26T09:35:11.284Z,101206.63
2018-11-26T09:36:13.888Z,101205.66
2018-11-26T09:37:16.492Z,101205.19
2018-11-26T09:38:19.102Z,101201.66
2018-11-26T09:39:21.713Z,101205.19
2018-11-26T09:40:24.304Z,101205.66
2018-11-26T09:41:27.017Z,101207.86
2018-11-26T09:42:29.652Z,101205.19
2018-11-26T09:43:32.283Z,101203.97
2018-11-26T09:44:34.884Z,101205.66
2018-11-26T09:45:40.556Z,101206.99
2018-11-26T09:46:40.158Z,101205.30
2018-11-26T09:47:42.813Z,101204.92
2018-11-26T09:48:45.425Z,101206.63
2018-11-26T09:49:48.044Z,101207.95
2018-11-26T09:50:50.680Z,101208.82
2018-11-26T09:51:53.277Z,101210.62
2018-11-26T09:52:55.937Z,101211.95
2018-11-26T09:53:58.520Z,101207.13
2018-11-26T09:55:01.134Z,101215.47
2018-11-26T09:56:04.675Z,101213.28
2018-11-26T09:57:06.460Z,101212.45
2018-11-26T09:58:09.085Z,101218.60
2018-11-26T09:59:11.684Z,101217.77
2018-11-26T10:00:15.394Z,101211.48
2018-11-26T10:01:18.022Z,101210.25
2018-11-26T10:02:20.619Z,101219.94
2018-11-26T10:03:23.249Z,101211.95
2018-11-26T10:04:25.844Z,101211.95
2018-11-26T10:05:28.446Z,101208.32
2018-11-26T10:06:31.045Z,101215.34
2018-11-26T10:07:33.664Z,101224.29
2018-11-26T10:08:36.260Z,101211.84
2018-11-26T10:09:38.846Z,101217.64
2018-11-26T10:10:41.452Z,101222.00
2018-11-26T10:11:44.063Z,101218.37
2018-11-26T10:12:46.840Z,101225.89
2018-11-26T10:13:49.460Z,101224.55
2018-11-26T10:14:52.064Z,101220.06
2018-11-26T10:15:54.688Z,101225.39
2018-11-26T10:16:57.304Z,101220.06
2018-11-26T10:17:59.916Z,101223.70
2018-11-26T10:19:02.520Z,101228.05
2018-11-26T10:20:05.926Z,101225.39
2018-11-26T10:21:08.512Z,101221.89
2018-11-26T10:22:11.119Z,101230.25
2018-11-26T10:23:13.748Z,101223.70
2018-11-26T10:24:16.373Z,101225.39
2018-11-26T10:25:19.895Z,101228.42
2018-11-26T10:26:22.509Z,101223.70
2018-11-26T10:27:25.108Z,101225.89
2018-11-26T10:28:27.710Z,101223.70
2018-11-26T10:29:30.316Z,101221.03
2018-11-26T10:30:32.912Z,101225.02
2018-11-26T10:31:35.515Z,101222.86
2018-11-26T10:32:38.347Z,101223.33
2018-11-26T10:33:40.940Z,101224.19
2018-11-26T10:34:43.536Z,101227.32
2018-11-26T10:35:46.156Z,101228.28
2018-11-26T10:36:48.763Z,101233.52
2018-11-26T10:37:51.402Z,101235.30
2018-11-26T10:38:54.005Z,101237.97
2018-11-26T10:39:56.612Z,101238.94
2018-11-26T10:40:59.329Z,101242.46
2018-11-26T10:42:01.948Z,101241.50
2018-11-26T10:43:07.801Z,101235.80
2018-11-26T10:44:07.725Z,101243.79
2018-11-26T10:45:12.344Z,101240.77
2018-11-26T10:46:14.940Z,101242.83
2018-11-26T10:47:17.545Z,101255.87
2018-11-26T10:48:20.179Z,101244.26
2018-11-26T10:49:22.784Z,101234.94
2018-11-26T10:50:26.236Z,101219.39
2018-11-26T10:51:29.178Z,101233.61
2018-11-26T10:52:31.485Z,101247.78
2018-11-26T10:53:34.100Z,101250.08
2018-11-26T10:54:36.688Z,101240.27
2018-11-26T10:55:39.282Z,101243.42
2018-11-26T10:56:41.868Z,101239.44
2018-11-26T10:57:44.527Z,101243.42
2018-11-26T10:58:47.113Z,101244.26
2018-11-26T10:59:49.710Z,101247.42
2018-11-26T11:01:01.244Z,101245.59
2018-11-26T11:03:08.069Z,101249.12
2018-11-26T11:04:10.668Z,101244.16
2018-11-26T11:05:13.324Z,101253.94
2018-11-26T11:06:15.924Z,101248.38
2018-11-26T11:07:18.552Z,101244.86
2018-11-26T11:08:21.197Z,101247.15
2018-11-26T11:09:23.816Z,101237.59
2018-11-26T11:10:28.717Z,101247.52
2018-11-26T11:11:31.333Z,101247.65
2018-11-26T11:12:33.959Z,101248.84
2018-11-26T11:13:36.556Z,101254.17
2018-11-26T11:14:39.296Z,101245.36
2018-11-26T11:15:41.924Z,101254.54
2018-11-26T11:16:44.564Z,101250.55
2018-11-26T11:17:47.180Z,101241.23
2018-11-26T11:18:49.789Z,101248.75
2018-11-26T11:19:52.392Z,101252.24
2018-11-26T11:20:54.984Z,101254.44
2018-11-26T11:21:57.591Z,101254.44
2018-11-26T11:23:00.194Z,101248.25
2018-11-26T11:24:02.804Z,101249.95
2018-11-26T11:25:06.224Z,101248.62
2018-11-26T11:26:08.852Z,101241.86
2018-11-26T11:27:11.464Z,101255.64
2018-11-26T11:28:14.063Z,101255.64
2018-11-26T11:29:16.662Z,101254.80
2018-11-26T11:30:20.982Z,101258.30
2018-11-26T11:31:23.573Z,101253.34
2018-11-26T11:32:26.186Z,101255.64
2018-11-26T11:33:28.790Z,101258.30
2018-11-26T11:34:31.389Z,101255.64
2018-11-26T11:35:34.093Z,101252.97
2018-11-26T11:36:36.697Z,101260.96
2018-11-26T11:37:39.491Z,101263.16
2018-11-26T11:38:42.089Z,101260.59
2018-11-26T11:39:44.701Z,101267.16
2018-11-26T11:40:47.309Z,101263.98
2018-11-26T11:41:49.923Z,101266.28
2018-11-26T11:42:52.638Z,101263.16
2018-11-26T11:43:55.257Z,101264.95
2018-11-26T11:44:57.914Z,101269.81
2018-11-26T11:46:00.550Z,101264.13
2018-11-26T11:47:03.181Z,101266.66
2018-11-26T11:48:06.173Z,101271.14
2018-11-26T11:49:08.766Z,101265.81
2018-11-26T11:50:12.506Z,101269.81
2018-11-26T11:51:15.098Z,101268.48
2018-11-26T11:52:17.714Z,101270.64
2018-11-26T11:53:20.312Z,101269.68
2018-11-26T11:54:22.925Z,101264.95
2018-11-26T11:55:26.295Z,101271.14
2018-11-26T11:56:28.917Z,101271.97
2018-11-26T11:57:31.549Z,101272.47
2018-11-26T11:58:34.161Z,101277.66
2018-11-26T11:59:36.789Z,101274.64
2018-11-26T12:00:40.424Z,101282.62